createdAt,value
2022-10-18T00:01:48.333Z,53.10
2022-10-18T00:04:16.773Z,51.70
2022-10-18T00:06:45.199Z,50.60
2022-10-18T00:09:13.720Z,49.70
2022-10-18T00:11:42.291Z,54.40
2022-10-18T00:14:10.513Z,57.10
2022-10-18T00:16:38.781Z,58.90
2022-10-18T00:19:07.082Z,60.30
2022-10-18T00:21:35.438Z,61.60
2022-10-18T00:24:03.924Z,62.50
2022-10-18T00:26:32.498Z,63.60
2022-10-18T00:29:04.752Z,63.30
2022-10-18T00:31:38.676Z,58.80
2022-10-18T00:34:10.726Z,55.90
2022-10-18T00:36:39.096Z,53.90
2022-10-18T00:39:08.793Z,52.80
2022-10-18T00:41:38.137Z,51.70
2022-10-18T00:44:07.811Z,50.30
2022-10-18T00:46:39.269Z,53.10
2022-10-18T00:49:25.630Z,57.00
2022-10-18T00:51:59.425Z,59.30
2022-10-18T00:54:28.947Z,60.70
2022-10-18T00:56:57.534Z,62.00
2022-10-18T00:59:26.295Z,62.90
2022-10-18T01:01:54.089Z,63.70
2022-10-18T01:04:23.195Z,63.90
2022-10-18T01:07:09.881Z,60.60
2022-10-18T01:09:44.505Z,56.70
2022-10-18T01:12:45.588Z,54.70
2022-10-18T01:15:20.255Z,52.80
2022-10-18T01:17:51.259Z,51.60
2022-10-18T01:20:22.183Z,50.80
2022-10-18T01:22:59.350Z,51.10
2022-10-18T01:25:57.664Z,55.80
2022-10-18T01:29:01.513Z,58.20
2022-10-18T01:31:38.366Z,60.20
2022-10-18T01:34:10.653Z,62.00
2022-10-18T01:36:46.587Z,63.10
2022-10-18T01:39:27.103Z,63.60
2022-10-18T01:41:56.417Z,64.00
2022-10-18T01:44:27.483Z,58.70
2022-10-18T01:46:57.517Z,55.80
2022-10-18T01:49:26.897Z,54.10
2022-10-18T01:51:55.127Z,53.20
2022-10-18T01:54:30.606Z,52.20
2022-10-18T01:57:20.417Z,51.20
2022-10-18T02:00:02.665Z,54.10
2022-10-18T02:02:50.597Z,58.50
2022-10-18T02:05:37.299Z,60.60
2022-10-18T02:08:24.397Z,62.50
2022-10-18T02:10:56.533Z,63.90
2022-10-18T02:13:29.728Z,64.70
2022-10-18T02:16:04.466Z,65.20
2022-10-18T02:18:40.144Z,65.60
2022-10-18T02:21:10.981Z,63.10
2022-10-18T02:23:39.794Z,58.30
2022-10-18T02:26:07.584Z,56.10
2022-10-18T02:28:35.857Z,54.70
2022-10-18T02:31:20.103Z,53.20
2022-10-18T02:33:58.726Z,55.40
2022-10-18T02:36:33.697Z,59.90
2022-10-18T02:39:06.991Z,61.80
2022-10-18T02:41:35.319Z,63.20
2022-10-18T02:44:03.344Z,64.30
2022-10-18T02:46:31.663Z,65.40
2022-10-18T02:48:59.800Z,66.00
2022-10-18T02:51:27.893Z,66.30
2022-10-18T02:53:56.103Z,65.80
2022-10-18T02:56:24.559Z,59.60
2022-10-18T02:58:52.718Z,57.00
2022-10-18T03:01:21.157Z,55.30
2022-10-18T03:03:49.584Z,54.00
2022-10-18T03:06:17.759Z,53.90
2022-10-18T03:08:46.165Z,57.60
2022-10-18T03:11:14.330Z,60.70
2022-10-18T03:13:42.482Z,62.30
2022-10-18T03:16:10.880Z,63.40
2022-10-18T03:18:39.190Z,64.60
2022-10-18T03:21:08.319Z,65.50
2022-10-18T03:23:36.787Z,66.00
2022-10-18T03:26:04.978Z,66.10
2022-10-18T03:28:33.113Z,66.20
2022-10-18T03:31:02.710Z,60.20
2022-10-18T03:33:32.623Z,57.40
2022-10-18T03:36:00.975Z,55.60
2022-10-18T03:38:29.292Z,54.60
2022-10-18T03:40:57.667Z,59.00
2022-10-18T03:43:25.967Z,61.90
2022-10-18T03:45:54.125Z,63.40
2022-10-18T03:48:22.610Z,64.80
2022-10-18T03:50:51.076Z,65.80
2022-10-18T03:53:19.349Z,66.70
2022-10-18T03:55:55.255Z,67.00
2022-10-18T03:58:24.669Z,67.20
2022-10-18T04:00:54.108Z,61.90
2022-10-18T04:03:23.293Z,58.60
2022-10-18T04:05:51.957Z,56.90
2022-10-18T04:08:20.038Z,54.90
2022-10-18T04:10:48.151Z,53.60
2022-10-18T04:13:16.407Z,52.40
2022-10-18T04:15:44.758Z,56.00
2022-10-18T04:18:12.905Z,59.20
2022-10-18T04:20:41.062Z,61.00
2022-10-18T04:23:09.274Z,62.30
2022-10-18T04:25:37.356Z,63.70
2022-10-18T04:28:05.858Z,64.60
2022-10-18T04:30:34.164Z,65.40
2022-10-18T04:33:02.347Z,65.90
2022-10-18T04:35:30.612Z,65.70
2022-10-18T04:37:58.787Z,65.20
2022-10-18T04:40:26.938Z,59.20
2022-10-18T04:42:55.203Z,57.00
2022-10-18T04:45:23.409Z,55.30
2022-10-18T04:47:51.863Z,56.50
2022-10-18T04:50:20.041Z,60.30
2022-10-18T04:55:16.256Z,64.10
2022-10-18T04:57:44.585Z,65.20
2022-10-18T05:00:13.478Z,66.10
2022-10-18T05:02:41.829Z,67.10
2022-10-18T05:05:13.221Z,67.40
2022-10-18T05:07:42.646Z,67.40
2022-10-18T05:10:10.979Z,64.60
2022-10-18T05:12:39.183Z,59.50
2022-10-18T05:15:07.723Z,57.60
2022-10-18T05:17:36.058Z,55.80
2022-10-18T05:20:05.102Z,54.90
2022-10-18T05:22:33.722Z,59.00
2022-10-18T05:25:01.799Z,61.70
2022-10-18T05:27:30.415Z,63.50
2022-10-18T05:30:01.239Z,64.90
2022-10-18T05:32:33.113Z,65.80
2022-10-18T05:35:01.247Z,66.80
2022-10-18T05:37:29.412Z,67.50
2022-10-18T05:39:57.500Z,68.40
2022-10-18T05:42:25.987Z,67.60
2022-10-18T05:44:54.085Z,65.30
2022-10-18T05:47:22.259Z,60.00
2022-10-18T05:49:50.436Z,58.10
2022-10-18T05:52:18.455Z,56.10
2022-10-18T05:54:46.687Z,56.30
2022-10-18T05:57:15.046Z,61.10
2022-10-18T05:59:43.096Z,63.00
2022-10-18T06:02:13.369Z,64.70
2022-10-18T06:04:41.551Z,65.70
2022-10-18T06:07:11.166Z,67.00
2022-10-18T06:09:39.627Z,68.00
2022-10-18T06:12:07.806Z,68.60
2022-10-18T06:14:37.363Z,68.70
2022-10-18T06:17:05.734Z,68.70
2022-10-18T06:19:33.846Z,63.00
2022-10-18T06:22:02.070Z,59.70
2022-10-18T06:24:30.212Z,57.90
2022-10-18T06:26:58.626Z,59.00
2022-10-18T06:29:26.808Z,62.70
2022-10-18T06:31:55.109Z,64.80
2022-10-18T06:34:23.319Z,66.20
2022-10-18T06:36:54.901Z,67.50
2022-10-18T06:39:25.140Z,68.40
2022-10-18T06:41:53.384Z,69.20
2022-10-18T06:44:24.184Z,69.60
2022-10-18T06:46:52.477Z,69.60
2022-10-18T06:49:20.693Z,69.50
2022-10-18T06:51:48.970Z,63.00
2022-10-18T06:54:18.728Z,60.00
2022-10-18T06:56:47.353Z,58.40
2022-10-18T06:59:15.648Z,61.00
2022-10-18T07:01:44.157Z,64.30
2022-10-18T07:04:12.363Z,66.10
2022-10-18T07:06:40.671Z,67.50
2022-10-18T07:09:08.961Z,68.50
2022-10-18T07:11:37.183Z,69.40
2022-10-18T07:14:05.567Z,69.90
2022-10-18T07:16:34.891Z,70.30
2022-10-18T07:19:03.308Z,70.30
2022-10-18T07:21:31.553Z,66.30
2022-10-18T07:23:59.703Z,61.20
2022-10-18T07:26:33.232Z,60.00
2022-10-18T07:29:05.567Z,57.90
2022-10-18T07:31:34.200Z,59.20
2022-10-18T07:34:04.313Z,63.60
2022-10-18T07:36:32.844Z,65.30
2022-10-18T07:39:01.163Z,66.70
2022-10-18T07:41:29.427Z,67.90
2022-10-18T07:43:57.663Z,68.80
2022-10-18T07:46:25.970Z,69.60
2022-10-18T07:48:54.077Z,70.20
2022-10-18T07:51:22.814Z,70.40
2022-10-18T07:53:51.041Z,70.40
2022-10-18T07:56:22.589Z,67.70
2022-10-18T07:58:53.001Z,62.20
2022-10-18T08:01:23.553Z,60.00
2022-10-18T08:03:52.501Z,58.50
2022-10-18T08:06:22.599Z,57.10
2022-10-18T08:08:50.865Z,61.40
2022-10-18T08:11:21.739Z,64.30
2022-10-18T08:13:50.487Z,65.80
2022-10-18T08:16:25.250Z,67.10
2022-10-18T08:18:54.411Z,68.10
2022-10-18T08:21:22.931Z,69.00
2022-10-18T08:23:51.237Z,69.90
2022-10-18T08:26:21.019Z,70.20
2022-10-18T08:28:58.319Z,70.30
2022-10-18T08:31:32.026Z,70.30
2022-10-18T08:34:00.321Z,63.00
2022-10-18T08:36:28.546Z,60.30
2022-10-18T08:38:56.833Z,59.00
2022-10-18T08:41:43.504Z,57.40
2022-10-18T08:44:25.195Z,58.90
2022-10-18T08:47:07.271Z,63.20
2022-10-18T08:49:47.601Z,65.00
2022-10-18T08:52:47.005Z,66.70
2022-10-18T08:55:27.416Z,67.80
2022-10-18T08:57:57.966Z,69.10
2022-10-18T09:00:33.177Z,69.90
2022-10-18T09:03:19.807Z,70.40
2022-10-18T09:06:01.712Z,70.50
2022-10-18T09:08:42.272Z,70.40
2022-10-18T09:11:30.582Z,64.30
2022-10-18T09:14:23.478Z,60.90
2022-10-18T09:17:06.743Z,59.10
2022-10-18T09:19:56.297Z,57.40
2022-10-18T09:22:49.699Z,58.40
2022-10-18T09:25:22.866Z,62.90
2022-10-18T09:27:55.667Z,64.90
2022-10-18T09:30:36.014Z,66.30
2022-10-18T09:33:36.502Z,67.50
2022-10-18T09:36:09.156Z,68.90
2022-10-18T09:39:00.443Z,69.70
2022-10-18T09:41:31.619Z,70.10
2022-10-18T09:44:26.044Z,70.50
2022-10-18T09:47:18.811Z,70.40
2022-10-18T09:49:58.171Z,63.70
2022-10-18T09:52:40.159Z,60.60
2022-10-18T09:55:20.999Z,58.70
2022-10-18T09:57:57.833Z,57.40
2022-10-18T10:00:35.716Z,56.00
2022-10-18T10:03:12.123Z,58.80
2022-10-18T10:05:40.527Z,62.70
2022-10-18T10:08:09.098Z,64.60
2022-10-18T10:10:39.805Z,66.20
2022-10-18T10:13:16.198Z,67.40
2022-10-18T10:15:53.824Z,69.10
2022-10-18T10:18:35.249Z,70.10
2022-10-18T10:21:23.871Z,70.90
2022-10-18T10:23:56.137Z,71.10
2022-10-18T10:26:34.979Z,69.40
2022-10-18T10:29:03.560Z,63.60
2022-10-18T10:31:33.924Z,61.20
2022-10-18T10:34:13.022Z,59.50
2022-10-18T10:36:54.488Z,57.90
2022-10-18T10:39:25.233Z,56.40
2022-10-18T10:41:58.795Z,55.10
2022-10-18T10:44:31.010Z,54.10
2022-10-18T10:47:00.382Z,52.90
2022-10-18T10:49:46.585Z,52.20
2022-10-18T10:52:28.533Z,51.70
2022-10-18T10:55:11.051Z,56.00
2022-10-18T10:57:49.454Z,60.40
2022-10-18T11:00:53.116Z,62.50
2022-10-18T11:03:29.056Z,64.30
2022-10-18T11:05:58.826Z,65.80
2022-10-18T11:08:32.719Z,66.90
2022-10-18T11:11:26.335Z,67.90
2022-10-18T11:14:26.299Z,68.10
2022-10-18T11:17:13.599Z,67.20
2022-10-18T11:20:20.812Z,61.70
2022-10-18T11:23:02.713Z,59.00
2022-10-18T11:26:12.662Z,57.40
2022-10-18T11:29:03.120Z,55.80
2022-10-18T11:31:51.512Z,54.10
2022-10-18T11:34:59.033Z,52.80
2022-10-18T11:37:48.829Z,51.60
2022-10-18T11:40:38.687Z,50.60
2022-10-18T11:44:01.791Z,53.20
2022-10-18T11:46:51.528Z,58.40
2022-10-18T11:49:43.214Z,61.50
2022-10-18T11:52:45.563Z,63.70
2022-10-18T11:55:37.367Z,65.10
2022-10-18T11:58:47.612Z,66.50
2022-10-18T12:01:48.293Z,67.30
2022-10-18T12:04:25.849Z,67.90
2022-10-18T12:06:57.181Z,66.90
2022-10-18T12:09:43.494Z,61.00
2022-10-18T12:12:20.950Z,58.50
2022-10-18T12:15:02.203Z,57.00
2022-10-18T12:17:49.859Z,55.80
2022-10-18T12:20:31.041Z,54.40
2022-10-18T12:23:11.958Z,53.20
2022-10-18T12:25:43.943Z,51.70
2022-10-18T12:28:33.757Z,51.00
2022-10-18T12:31:26.472Z,50.30
2022-10-18T12:34:01.467Z,53.20
2022-10-18T12:36:44.720Z,57.70
2022-10-18T12:39:32.488Z,60.60
2022-10-18T12:42:43.182Z,62.00
2022-10-18T12:45:14.171Z,64.20
2022-10-18T12:47:42.808Z,65.20
2022-10-18T12:50:27.916Z,65.80
2022-10-18T12:53:13.080Z,66.40
2022-10-18T12:55:47.553Z,66.90
2022-10-18T12:58:15.958Z,62.00
2022-10-18T13:00:44.179Z,58.90
2022-10-18T13:03:15.443Z,57.80
2022-10-18T13:05:53.286Z,56.00
2022-10-18T13:08:28.618Z,54.60
2022-10-18T13:11:09.187Z,53.40
2022-10-18T13:14:16.286Z,56.10
2022-10-18T13:17:03.450Z,60.60
2022-10-18T13:20:25.420Z,63.30
2022-10-18T13:23:27.872Z,65.10
2022-10-18T13:26:20.731Z,67.00
2022-10-18T13:29:34.547Z,67.90
2022-10-18T13:32:24.514Z,68.80
2022-10-18T13:34:52.884Z,67.60
2022-10-18T13:37:24.465Z,61.80
2022-10-18T13:40:17.327Z,59.50
2022-10-18T13:42:45.710Z,57.50
2022-10-18T13:45:32.075Z,56.70
2022-10-18T13:48:32.669Z,54.90
2022-10-18T13:51:30.803Z,53.80
2022-10-18T13:54:08.300Z,52.90
2022-10-18T13:57:05.347Z,51.50
2022-10-18T13:59:46.237Z,50.60
2022-10-18T14:02:52.029Z,50.20
2022-10-18T14:05:32.768Z,50.00
2022-10-18T14:08:26.197Z,49.00
2022-10-18T14:11:26.362Z,49.10
2022-10-18T14:14:03.017Z,48.60
2022-10-18T14:16:31.569Z,48.00
2022-10-18T14:19:23.982Z,47.80
2022-10-18T14:22:04.546Z,47.50
2022-10-18T14:24:33.162Z,46.70
2022-10-18T14:27:21.223Z,46.00
2022-10-18T14:30:07.189Z,48.50
2022-10-18T14:32:35.682Z,52.90
2022-10-18T14:37:55.029Z,58.20
2022-10-18T14:40:41.190Z,60.20
2022-10-18T14:43:13.759Z,62.00
2022-10-18T14:45:45.623Z,63.00
2022-10-18T14:48:18.278Z,64.30
2022-10-18T14:50:56.398Z,64.80
2022-10-18T14:53:24.833Z,60.70
2022-10-18T14:56:01.490Z,57.50
2022-10-18T14:58:29.869Z,55.80
2022-10-18T15:00:59.737Z,54.10
2022-10-18T15:03:28.661Z,53.00
2022-10-18T15:06:00.392Z,51.70
2022-10-18T15:08:38.520Z,50.60
2022-10-18T15:11:10.549Z,50.20
2022-10-18T15:14:06.118Z,48.80
2022-10-18T15:16:35.500Z,47.80
2022-10-18T15:19:28.956Z,47.00
2022-10-18T15:25:09.830Z,46.50
2022-10-18T15:30:18.494Z,46.10
2022-10-18T15:32:52.622Z,45.50
2022-10-18T15:35:29.045Z,45.10
2022-10-18T15:38:21.647Z,45.10
2022-10-18T15:40:50.050Z,48.60
2022-10-18T15:43:27.886Z,52.20
2022-10-18T15:46:05.020Z,54.80
2022-10-18T15:48:36.639Z,51.20
2022-10-18T15:51:07.948Z,49.20
2022-10-18T15:53:50.001Z,51.30
2022-10-18T15:56:40.454Z,55.00
2022-10-18T15:59:26.953Z,58.00
2022-10-18T16:01:55.507Z,59.60
2022-10-18T16:04:23.528Z,53.50
2022-10-18T16:06:52.420Z,51.50
2022-10-18T16:09:22.303Z,50.40
2022-10-18T16:11:55.620Z,49.20
2022-10-18T16:14:26.352Z,48.50
2022-10-18T16:17:02.442Z,48.00
2022-10-18T16:19:32.229Z,47.60
2022-10-18T16:22:06.152Z,46.30
2022-10-18T16:24:35.171Z,45.80
2022-10-18T16:27:03.500Z,46.50
2022-10-18T16:29:31.887Z,50.60
2022-10-18T16:32:00.386Z,53.80
2022-10-18T16:34:28.606Z,55.70
2022-10-18T16:36:57.007Z,57.30
2022-10-18T16:39:25.503Z,53.40
2022-10-18T16:41:53.946Z,50.70
2022-10-18T16:44:22.208Z,50.20
2022-10-18T16:46:52.593Z,55.20
2022-10-18T16:49:25.030Z,58.10
2022-10-18T16:51:54.992Z,59.50
2022-10-18T16:54:23.807Z,56.00
2022-10-18T16:56:52.301Z,52.50
2022-10-18T16:59:30.202Z,51.00
2022-10-18T17:01:58.699Z,49.60
2022-10-18T17:04:27.061Z,48.60
2022-10-18T17:06:57.779Z,47.70
2022-10-18T17:09:29.229Z,47.00
2022-10-18T17:11:57.535Z,46.50
2022-10-18T17:14:25.642Z,45.80
2022-10-18T17:16:55.940Z,45.40
2022-10-18T17:19:25.418Z,47.70
2022-10-18T17:21:55.339Z,51.50
2022-10-18T17:24:25.162Z,52.90
2022-10-18T17:26:53.580Z,49.00
2022-10-18T17:29:21.704Z,47.40
2022-10-18T17:31:52.362Z,51.40
2022-10-18T17:34:21.530Z,55.00
2022-10-18T17:36:49.955Z,57.50
2022-10-18T17:39:18.179Z,55.90
2022-10-18T17:41:46.619Z,51.40
2022-10-18T17:44:15.044Z,49.70
2022-10-18T17:46:43.337Z,48.70
2022-10-18T17:49:11.660Z,48.20
2022-10-18T17:51:40.284Z,47.20
2022-10-18T17:54:08.838Z,46.80
2022-10-18T17:56:37.094Z,45.90
2022-10-18T17:59:05.305Z,45.50
2022-10-18T18:01:33.744Z,46.70
2022-10-18T18:04:03.475Z,51.10
2022-10-18T18:06:34.594Z,53.80
2022-10-18T18:09:11.892Z,55.90
2022-10-18T18:11:42.469Z,55.00
2022-10-18T18:14:12.090Z,50.60
2022-10-18T18:16:43.032Z,49.60
2022-10-18T18:19:11.576Z,53.70
2022-10-18T18:21:40.891Z,56.60
2022-10-18T18:24:09.705Z,58.70
2022-10-18T18:26:39.389Z,59.80
2022-10-18T18:29:07.699Z,54.20
2022-10-18T18:31:38.816Z,51.80
2022-10-18T18:34:10.866Z,50.70
2022-10-18T18:36:39.210Z,49.50
2022-10-18T18:39:08.135Z,48.40
2022-10-18T18:41:36.766Z,47.50
2022-10-18T18:44:06.545Z,47.00
2022-10-18T18:46:36.629Z,46.30
2022-10-18T18:49:06.582Z,45.60
2022-10-18T18:51:35.278Z,45.00
2022-10-18T18:54:06.187Z,47.40
2022-10-18T18:56:34.829Z,50.80
2022-10-18T18:59:03.035Z,53.40
2022-10-18T19:01:33.908Z,55.20
2022-10-18T19:04:02.386Z,56.50
2022-10-18T19:06:39.222Z,55.00
2022-10-18T19:09:11.109Z,50.90
2022-10-18T19:11:40.092Z,49.90
2022-10-18T19:14:08.967Z,54.20
2022-10-18T19:16:57.982Z,57.40
2022-10-18T19:19:28.552Z,59.20
2022-10-18T19:21:59.529Z,59.80
2022-10-18T19:24:29.699Z,60.00
2022-10-18T19:27:03.215Z,54.50
2022-10-18T19:29:36.968Z,52.50
2022-10-18T19:32:08.477Z,50.80
2022-10-18T19:34:37.022Z,49.50
2022-10-18T19:37:05.707Z,48.90
2022-10-18T19:39:35.388Z,47.90
2022-10-18T19:42:06.735Z,47.00
2022-10-18T19:44:36.517Z,47.00
2022-10-18T19:47:06.409Z,45.90
2022-10-18T19:49:34.815Z,45.10
2022-10-18T19:52:03.598Z,45.60
2022-10-18T19:54:31.878Z,49.60
2022-10-18T19:56:59.984Z,52.50
2022-10-18T19:59:28.521Z,54.70
2022-10-18T20:01:56.915Z,56.00
2022-10-18T20:04:25.037Z,56.90
2022-10-18T20:06:53.341Z,57.40
2022-10-18T20:09:21.442Z,52.70
2022-10-18T20:11:49.688Z,50.70
2022-10-18T20:14:17.899Z,52.30
2022-10-18T20:16:46.098Z,56.00
2022-10-18T20:19:14.790Z,58.40
2022-10-18T20:21:43.124Z,59.80
2022-10-18T20:24:12.106Z,60.00
2022-10-18T20:26:40.281Z,54.60
2022-10-18T20:29:08.711Z,52.50
2022-10-18T20:31:37.598Z,51.20
2022-10-18T20:34:14.093Z,49.90
2022-10-18T20:36:42.377Z,49.10
2022-10-18T20:39:13.636Z,48.00
2022-10-18T20:41:42.005Z,47.40
2022-10-18T20:44:14.469Z,46.70
2022-10-18T20:46:43.504Z,46.30
2022-10-18T20:49:14.909Z,45.60
2022-10-18T20:51:43.280Z,48.40
2022-10-18T20:54:12.152Z,51.80
2022-10-18T20:56:40.767Z,54.10
2022-10-18T20:59:09.340Z,56.00
2022-10-18T21:01:38.616Z,57.00
2022-10-18T21:04:08.951Z,56.80
2022-10-18T21:06:42.929Z,51.50
2022-10-18T21:09:16.896Z,50.30
2022-10-18T21:11:48.035Z,53.90
2022-10-18T21:14:21.804Z,57.70
2022-10-18T21:16:52.262Z,59.40
2022-10-18T21:19:23.283Z,60.00
2022-10-18T21:21:55.493Z,60.10
2022-10-18T21:24:24.899Z,54.40
2022-10-18T21:26:53.503Z,52.30
2022-10-18T21:29:22.774Z,51.30
2022-10-18T21:31:55.116Z,49.90
2022-10-18T21:34:23.736Z,48.80
2022-10-18T21:36:51.873Z,48.20
2022-10-18T21:41:57.607Z,51.80
2022-10-18T21:44:26.094Z,55.30
2022-10-18T21:46:54.389Z,57.20
2022-10-18T21:49:22.615Z,58.70
2022-10-18T21:51:50.952Z,59.90
2022-10-18T21:54:19.205Z,60.20
2022-10-18T21:56:47.571Z,54.50
2022-10-18T21:59:16.042Z,52.50
2022-10-18T22:01:44.382Z,51.00
2022-10-18T22:04:24.120Z,49.80
2022-10-18T22:06:53.077Z,48.70
2022-10-18T22:09:21.811Z,47.60
2022-10-18T22:11:51.672Z,47.40
2022-10-18T22:14:20.487Z,46.30
2022-10-18T22:16:48.726Z,46.10
2022-10-18T22:19:17.340Z,49.60
2022-10-18T22:21:45.698Z,53.10
2022-10-18T22:24:13.924Z,55.40
2022-10-18T22:26:43.791Z,57.00
2022-10-18T22:29:16.142Z,58.00
2022-10-18T22:31:47.752Z,58.60
2022-10-18T22:34:18.810Z,53.10
2022-10-18T22:36:47.283Z,51.40
2022-10-18T22:39:15.872Z,50.30
2022-10-18T22:41:44.722Z,48.70
2022-10-18T22:44:14.395Z,47.90
2022-10-18T22:46:43.358Z,47.60
2022-10-18T22:49:12.560Z,52.00
2022-10-18T22:51:41.691Z,54.60
2022-10-18T22:54:10.703Z,56.80
2022-10-18T22:56:39.037Z,58.50
2022-10-18T22:59:07.438Z,60.00
2022-10-18T23:01:36.076Z,61.00
2022-10-18T23:04:04.837Z,61.50
2022-10-18T23:06:34.528Z,62.00
2022-10-18T23:09:06.712Z,56.70
2022-10-18T23:11:35.805Z,53.80
2022-10-18T23:14:05.581Z,53.00
2022-10-18T23:16:33.860Z,51.50
2022-10-18T23:19:02.074Z,51.20
2022-10-18T23:21:30.489Z,49.50
2022-10-18T23:23:58.687Z,50.40
2022-10-18T23:26:28.509Z,54.80
2022-10-18T23:28:57.192Z,57.00
2022-10-18T23:31:31.497Z,58.80
2022-10-18T23:34:02.704Z,60.20
2022-10-18T23:36:33.220Z,61.40
2022-10-18T23:39:01.570Z,62.00
2022-10-18T23:41:29.851Z,62.60
2022-10-18T23:43:58.312Z,62.70
2022-10-18T23:46:26.326Z,57.10
2022-10-18T23:48:54.486Z,55.00
2022-10-18T23:51:22.713Z,53.40
2022-10-18T23:53:50.837Z,52.50
2022-10-18T23:56:19.907Z,50.80
2022-10-18T23:58:48.138Z,49.70
